Meath Environmental Platform

Observations for Trim Patrick St

Time AQI Temp °C Hum % Pres Pa CO μg/m³ H₂S μg/m³ NO μg/m³ NO₂ μg/m³ O₃ μg/m³ SO₂ μg/m³ PM1 μg/m³ PM2.5 μg/m³ PM10 μg/m³
Wednesday 5 August 2026
20:01 2 18 59 73,495 0 3.26 2.49 9.09 68.22 0.67 2 6.61 7.27
20:00 2 18 58 73,355 0 2.29 2.46 7.49 66.24 0.27 2 6.62 7.28
19:59 2 18 58 73,239 0 1.95 2.41 8.4 66.46 0.02 2 7.42 8.16
19:58 2 18.1 58 73,127 0 0.98 2.43 7.75 63.77 0.34 2 6.66 7.33
19:57 2 18.1 58 73,037 0 0.14 2.28 7.37 60.98 0.11 2.86 8.15 8.96
19:56 2 18.2 58 72,988 0 1 2.06 7.65 63.03 0.35 2 5.92 6.51
19:55 2 18.2 57 72,982 0 0.34 2.17 8.24 63.79 0.43 2 5.95 6.54
19:54 2 18.3 58 72,976 0 0 2.32 6.59 57.03 0.05 2 5.93 6.52
19:53 2 18.3 58 73,000 0 1.39 2.32 9.71 62.08 0.45 2.86 7.42 8.16
19:52 2 18.4 57 72,968 0.02 1.76 2.5 9.43 61.82 0.79 2.86 7.45 8.19
19:51 2 18.4 58 72,986 0.03 1.47 2.7 9.66 62.12 0.9 2.86 7.42 8.16
19:50 2 18.4 57 72,978 0.02 2.36 2.51 12.05 60.96 0.63 2.86 7.46 8.2
19:49 2 18.5 57 72,962 0 1.75 2.52 9.28 63.07 0.66 3.71 8.19 9.01
19:48 2 18.5 57 72,954 0 1.88 2.72 10.33 66.22 0.42 2.86 8.19 9.01
19:47 2 18.5 57 72,939 0 1.18 2.67 8.54 63.47 0.38 2.86 8.22 9.05
19:46 2 18.5 58 72,980 0 1.2 2.69 9.09 68.9 0.39 3.71 8.18 8.99
19:45 2 18.5 57 73,006 0.01 2.04 2.45 8.64 64.45 0.44 2.86 7.46 8.21
19:44 2 18.5 58 73,041 0.01 1.73 2.58 16.12 57.93 0.28 3.71 7.42 8.16
19:43 2 18.5 58 73,086 0 1.44 2.54 7.65 65.19 0.47 2 7.43 8.17
19:42 2 18.5 57 73,151 0 1.73 2.35 8.54 67.14 0.38 2.86 8.2 9.02